createdAt,value
2018-09-29T00:06:49.586Z,3.20
2018-09-29T00:09:53.181Z,2.87
2018-09-29T00:12:36.126Z,4.27
2018-09-29T00:19:14.672Z,2.43
2018-09-29T00:22:03.508Z,2.57
2018-09-29T00:24:44.818Z,2.63
2018-09-29T00:27:47.225Z,3.00
2018-09-29T00:30:43.212Z,3.10
2018-09-29T00:33:32.884Z,2.77
2018-09-29T00:36:17.615Z,2.90
2018-09-29T00:39:04.297Z,2.57
2018-09-29T00:43:49.124Z,2.30
2018-09-29T00:46:29.170Z,2.63
2018-09-29T00:49:11.097Z,2.40
2018-09-29T00:51:59.432Z,3.13
2018-09-29T00:54:45.326Z,2.63
2018-09-29T00:57:28.844Z,2.80
2018-09-29T01:00:14.617Z,2.67
2018-09-29T01:03:01.468Z,2.77
2018-09-29T01:05:53.377Z,2.97
2018-09-29T01:11:54.429Z,2.63
2018-09-29T01:14:44.679Z,2.63
2018-09-29T01:17:25.925Z,3.23
2018-09-29T01:23:10.102Z,2.80
2018-09-29T01:29:28.527Z,2.80
2018-09-29T01:32:24.679Z,3.03
2018-09-29T01:35:09.410Z,2.50
2018-09-29T01:38:09.104Z,3.17
2018-09-29T01:40:55.302Z,2.63
2018-09-29T01:47:14.621Z,2.70
2018-09-29T01:49:46.274Z,2.37
2018-09-29T01:52:19.193Z,2.63
2018-09-29T01:54:50.220Z,2.90
2018-09-29T01:57:24.638Z,2.87
2018-09-29T02:00:05.600Z,2.70
2018-09-29T02:05:54.888Z,2.60
2018-09-29T02:11:28.926Z,2.80
2018-09-29T02:14:14.688Z,2.77
2018-09-29T02:16:58.314Z,2.50
2018-09-29T02:19:40.940Z,2.60
2018-09-29T02:22:18.412Z,3.00
2018-09-29T02:25:00.575Z,2.27
2018-09-29T02:31:02.833Z,2.70
2018-09-29T02:33:39.094Z,3.40
2018-09-29T02:36:25.414Z,2.43
2018-09-29T02:39:12.036Z,2.97
2018-09-29T02:41:47.635Z,3.07
2018-09-29T02:47:32.626Z,2.50
2018-09-29T02:50:06.349Z,2.80
2018-09-29T02:52:49.886Z,2.50
2018-09-29T02:55:32.489Z,2.07
2018-09-29T02:58:11.494Z,2.67
2018-09-29T03:00:44.943Z,3.33
2018-09-29T03:03:22.513Z,3.10
2018-09-29T03:05:59.931Z,2.30
2018-09-29T03:08:43.051Z,2.47
2018-09-29T03:11:18.759Z,2.93
2018-09-29T03:13:55.966Z,2.67
2018-09-29T03:17:37.500Z,2.40
2018-09-29T03:20:21.494Z,2.90
2018-09-29T03:23:01.948Z,2.93
2018-09-29T03:25:46.870Z,2.50
2018-09-29T03:28:24.216Z,2.53
2018-09-29T03:31:20.112Z,2.70
2018-09-29T03:33:55.287Z,3.10
2018-09-29T03:36:42.883Z,3.17
2018-09-29T03:53:04.048Z,2.30
2018-09-29T03:55:51.868Z,2.67
2018-09-29T03:58:28.134Z,2.53
2018-09-29T04:01:27.746Z,3.20
2018-09-29T04:04:14.702Z,3.37
2018-09-29T04:06:55.277Z,3.37
2018-09-29T04:09:42.246Z,3.40
2018-09-29T04:12:18.347Z,2.60
2018-09-29T04:14:50.651Z,3.40
2018-09-29T04:17:39.271Z,3.77
2018-09-29T04:20:20.185Z,3.70
2018-09-29T04:23:11.219Z,2.80
2018-09-29T04:25:55.723Z,3.20
2018-09-29T04:28:39.488Z,3.10
2018-09-29T04:34:41.530Z,3.70
2018-09-29T04:37:18.372Z,3.33
2018-09-29T04:39:59.593Z,3.57
2018-09-29T04:42:37.557Z,4.90
2018-09-29T04:45:24.092Z,4.70
2018-09-29T04:51:22.759Z,4.93
2018-09-29T04:53:56.674Z,3.77
2018-09-29T04:56:28.876Z,3.83
2018-09-29T04:59:08.059Z,3.67
2018-09-29T05:01:45.923Z,4.23
2018-09-29T05:04:27.215Z,3.10
2018-09-29T05:07:06.650Z,3.67
2018-09-29T05:09:50.124Z,4.10
2018-09-29T05:12:22.436Z,3.63
2018-09-29T05:14:56.327Z,3.67
2018-09-29T05:17:36.338Z,3.20
2018-09-29T05:20:14.007Z,2.97
2018-09-29T05:22:55.661Z,3.30
2018-09-29T05:25:28.786Z,3.37
2018-09-29T05:28:00.028Z,3.37
2018-09-29T05:30:43.829Z,3.80
2018-09-29T05:33:18.318Z,3.37
2018-09-29T05:35:49.332Z,3.30
2018-09-29T05:38:21.241Z,3.50
2018-09-29T05:40:54.666Z,3.40
2018-09-29T05:43:34.311Z,3.70
2018-09-29T05:46:37.468Z,3.30
2018-09-29T05:49:12.863Z,4.00
2018-09-29T05:54:29.844Z,4.80
2018-09-29T05:57:00.000Z,3.30
2018-09-29T05:59:49.381Z,3.73
2018-09-29T06:02:21.844Z,3.40
2018-09-29T06:04:59.496Z,3.60
2018-09-29T06:07:38.252Z,3.53
2018-09-29T06:10:21.506Z,3.47
2018-09-29T06:12:59.359Z,4.40
2018-09-29T06:15:36.997Z,4.10
2018-09-29T06:18:22.125Z,3.70
2018-09-29T06:21:08.984Z,3.90
2018-09-29T06:23:48.032Z,3.40
2018-09-29T06:26:19.965Z,4.10
2018-09-29T09:01:24.719Z,3.10
2018-09-29T09:15:20.392Z,3.27
2018-09-29T10:34:03.872Z,2.63
2018-09-29T10:50:40.832Z,2.30
2018-09-29T10:56:26.804Z,2.03
2018-09-29T10:59:19.699Z,2.37
2018-09-29T11:02:01.676Z,2.37
2018-09-29T11:04:50.427Z,2.37
2018-09-29T11:07:36.339Z,2.80
2018-09-29T11:10:26.494Z,2.30
2018-09-29T11:15:56.233Z,2.60
2018-09-29T11:19:05.706Z,2.50
2018-09-29T11:22:04.857Z,2.30
2018-09-29T11:24:55.595Z,2.40
2018-09-29T11:27:48.066Z,2.50
2018-09-29T11:43:28.664Z,1.50
2018-09-29T11:49:40.578Z,2.37
2018-09-29T12:35:19.481Z,1.77
2018-09-29T12:38:09.394Z,1.60
2018-09-29T12:54:46.340Z,1.87
2018-09-29T12:57:38.392Z,1.87
2018-09-29T13:00:23.058Z,2.00
2018-09-29T13:05:54.528Z,1.50
2018-09-29T13:08:39.232Z,1.90
2018-09-29T13:14:59.958Z,3.90
2018-09-29T13:18:01.674Z,2.20
2018-09-29T13:34:37.322Z,3.13
2018-09-29T13:37:11.755Z,3.23
2018-09-29T13:39:54.340Z,4.43
2018-09-29T13:56:56.008Z,1.70
2018-09-29T14:01:04.810Z,1.90
2018-09-29T14:26:26.204Z,1.57
2018-09-29T14:29:35.501Z,1.60
2018-09-29T14:32:28.390Z,1.67
2018-09-29T14:35:17.586Z,1.73
2018-09-29T14:37:57.610Z,2.30
2018-09-29T14:40:46.558Z,2.07
2018-09-29T14:43:22.018Z,2.07
2018-09-29T14:46:01.302Z,1.50
2018-09-29T14:48:37.598Z,1.90
2018-09-29T14:51:20.478Z,1.80
2018-09-29T14:59:56.741Z,2.23
2018-09-29T15:02:31.877Z,2.10
2018-09-29T15:05:32.239Z,1.70
2018-09-29T15:11:19.849Z,1.83
2018-09-29T15:37:58.295Z,1.93
2018-09-29T16:04:14.344Z,4.00
2018-09-29T16:06:52.280Z,9.47
2018-09-29T16:09:37.857Z,4.13
2018-09-29T16:12:25.471Z,2.87
2018-09-29T16:15:42.290Z,1.97
2018-09-29T16:18:41.181Z,2.10
2018-09-29T16:21:38.559Z,2.00
2018-09-29T16:24:32.335Z,2.47
2018-09-29T16:27:12.866Z,3.30
2018-09-29T17:22:30.694Z,5.20
2018-09-29T17:25:15.306Z,4.87
2018-09-29T17:27:53.140Z,4.93
2018-09-29T17:30:53.306Z,4.90
2018-09-29T17:33:24.985Z,5.30
2018-09-29T17:36:09.119Z,6.20
2018-09-29T17:38:45.441Z,5.43
2018-09-29T17:41:38.500Z,5.47
2018-09-29T17:44:11.652Z,5.00
2018-09-29T17:46:44.105Z,5.70
2018-09-29T17:49:14.691Z,4.80
2018-09-29T17:51:45.185Z,4.57
2018-09-29T17:54:19.414Z,5.50
2018-09-29T17:56:50.201Z,6.13
2018-09-29T17:59:21.200Z,6.50
2018-09-29T18:02:02.782Z,8.63
2018-09-29T18:04:51.077Z,7.13
2018-09-29T18:07:35.107Z,8.07
2018-09-29T18:14:10.326Z,9.43
2018-09-29T18:16:54.740Z,10.70
2018-09-29T18:19:33.868Z,13.73
2018-09-29T18:25:36.610Z,13.10
2018-09-29T18:28:07.655Z,13.37
2018-09-29T18:30:39.938Z,12.60
2018-09-29T18:33:11.119Z,13.17
2018-09-29T18:35:57.521Z,14.23
2018-09-29T18:38:29.700Z,13.90
2018-09-29T18:41:02.416Z,16.10
2018-09-29T18:43:41.053Z,17.03
2018-09-29T18:46:28.017Z,15.97
2018-09-29T18:49:03.157Z,16.80
2018-09-29T18:51:36.195Z,17.13
2018-09-29T18:54:07.730Z,18.07
2018-09-29T18:56:40.685Z,17.17
2018-09-29T18:59:11.699Z,16.37
2018-09-29T19:01:49.112Z,16.67
2018-09-29T19:04:26.919Z,17.13
2018-09-29T19:06:57.645Z,16.63
2018-09-29T19:09:32.606Z,18.10
2018-09-29T19:12:03.475Z,17.87
2018-09-29T19:14:35.021Z,16.87
2018-09-29T19:17:17.513Z,17.33
2018-09-29T19:34:54.481Z,17.13
2018-09-29T19:45:21.056Z,17.67
2018-09-29T19:51:04.603Z,17.47
2018-09-29T20:29:48.731Z,15.60
2018-09-29T20:32:26.768Z,15.40
2018-09-29T20:38:00.182Z,15.53
2018-09-29T20:40:31.671Z,15.03
2018-09-29T20:45:52.858Z,15.40
2018-09-29T20:48:49.152Z,14.63
2018-09-29T20:51:54.478Z,14.60
2018-09-29T21:09:17.097Z,15.03
2018-09-29T21:20:07.038Z,17.50
2018-09-29T21:22:52.782Z,12.87
2018-09-29T21:26:09.220Z,12.37
2018-09-29T21:29:13.753Z,11.83
2018-09-29T21:32:04.346Z,10.90
2018-09-29T21:34:53.056Z,10.37
2018-09-29T21:37:47.149Z,11.03
2018-09-29T21:41:07.765Z,10.13
2018-09-29T21:57:41.907Z,9.07
2018-09-29T22:00:43.068Z,11.53
2018-09-29T22:05:16.756Z,8.83
2018-09-29T22:08:22.678Z,11.47
2018-09-29T22:14:55.824Z,8.30
2018-09-29T22:17:38.431Z,9.07
2018-09-29T22:20:22.701Z,8.87
2018-09-29T22:32:36.353Z,8.57
2018-09-29T22:38:38.339Z,7.90
2018-09-29T22:41:23.410Z,7.50
2018-09-29T22:47:03.479Z,7.90
2018-09-29T22:49:58.848Z,9.27
2018-09-29T22:52:48.721Z,6.30
2018-09-29T22:55:29.100Z,6.40
2018-09-29T22:58:05.870Z,6.30
2018-09-29T23:00:37.513Z,6.23
2018-09-29T23:03:09.801Z,6.50
2018-09-29T23:05:49.351Z,6.23
2018-09-29T23:08:22.530Z,6.00
2018-09-29T23:11:03.607Z,6.10
2018-09-29T23:13:43.228Z,5.73
2018-09-29T23:16:14.171Z,5.90
2018-09-29T23:18:47.928Z,5.67
2018-09-29T23:21:43.172Z,5.77
2018-09-29T23:24:15.919Z,6.27
2018-09-29T23:26:51.701Z,6.27
2018-09-29T23:29:37.402Z,6.10
2018-09-29T23:33:26.054Z,5.80
2018-09-29T23:36:06.240Z,5.30
2018-09-29T23:38:39.279Z,5.70
2018-09-29T23:41:22.947Z,5.13
2018-09-29T23:43:56.518Z,5.43
